Clima Ilopango International Airport
Currently
Currently
Currently
METAR
MSSS 310325Z 3106/0106 11007KT 3000 RA SCT010 BKN017 TX23/3117Z TN20/3112Z TEMPO 3110/3115 1000 RAFG
TAF
MSSS 310325Z 3106/0106 11007KT 3000 RA SCT010 BKN017 TX23/3117Z TN20/3112Z TEMPO 3110/3115 1000 RAFG

Cámaras Aeroclub

Norte

Este

Sur

Oeste

AIS/AIP El Salvador

Autoridad de Aviación Civil (AAC) El Salvador

VER DOCUMENTO